Emerson, Canada
Current Conditions -  °F | °C
As of 7:13 PM on Monday 20 Oct 2014 (Local Time) from KHCO Reporting Station
Clear Clear  
Wind Chill: 45°   Ceiling: Unl
Heat Index: 48°   Visibility: 10mi
Dew Point: 37°   Wind: 7mph
Humidity: 66%   Direction: 100°E
Pressure: 30.04"   Gusts: NA
Location:  49.01°N, 97.2°W
Report Text: KHCO 210013Z AUTO 10006KT 10SM CLR 09/03 A3004 RMK AO2
Loading
Personal Weather Stations






























Interactive Weather Map
Tropical Storm Tracking
New forecast layout! Learn more

10-Day Weather Forecast

Advertisements
Track Severe Weather on mobile